sensor_id;sensor_type;location;lat;lon;timestamp;P1;durP1;ratioP1;P2;durP2;ratioP2
58752;SDS011;44525;46.052;13.610;2023-01-30T00:02:10;21.05;;;11.65;;
58752;SDS011;44525;46.052;13.610;2023-01-30T00:04:35;22.23;;;11.48;;
58752;SDS011;44525;46.052;13.610;2023-01-30T00:07:00;21.65;;;12.30;;
58752;SDS011;44525;46.052;13.610;2023-01-30T00:09:26;21.17;;;11.95;;
58752;SDS011;44525;46.052;13.610;2023-01-30T00:11:51;21.02;;;12.43;;
58752;SDS011;44525;46.052;13.610;2023-01-30T00:14:16;21.33;;;12.10;;
58752;SDS011;44525;46.052;13.610;2023-01-30T00:16:42;19.48;;;11.63;;
58752;SDS011;44525;46.052;13.610;2023-01-30T00:19:07;22.42;;;12.25;;
58752;SDS011;44525;46.052;13.610;2023-01-30T00:21:32;21.23;;;11.93;;
58752;SDS011;44525;46.052;13.610;2023-01-30T00:23:58;24.60;;;12.52;;
58752;SDS011;44525;46.052;13.610;2023-01-30T00:26:24;19.95;;;11.05;;
58752;SDS011;44525;46.052;13.610;2023-01-30T00:28:50;22.05;;;12.27;;
58752;SDS011;44525;46.052;13.610;2023-01-30T00:31:15;19.02;;;11.80;;
58752;SDS011;44525;46.052;13.610;2023-01-30T00:33:41;19.55;;;10.95;;
58752;SDS011;44525;46.052;13.610;2023-01-30T00:36:06;18.10;;;11.00;;
58752;SDS011;44525;46.052;13.610;2023-01-30T00:38:32;19.58;;;11.35;;
58752;SDS011;44525;46.052;13.610;2023-01-30T00:40:57;18.95;;;11.43;;
58752;SDS011;44525;46.052;13.610;2023-01-30T00:43:22;21.65;;;12.45;;
58752;SDS011;44525;46.052;13.610;2023-01-30T00:46:12;20.80;;;11.50;;
58752;SDS011;44525;46.052;13.610;2023-01-30T00:49:00;20.30;;;11.43;;
58752;SDS011;44525;46.052;13.610;2023-01-30T00:51:25;20.48;;;11.40;;
58752;SDS011;44525;46.052;13.610;2023-01-30T00:53:51;22.98;;;11.82;;
58752;SDS011;44525;46.052;13.610;2023-01-30T00:56:16;21.25;;;12.57;;
58752;SDS011;44525;46.052;13.610;2023-01-30T00:58:41;21.85;;;12.25;;
58752;SDS011;44525;46.052;13.610;2023-01-30T01:01:06;20.90;;;12.18;;
58752;SDS011;44525;46.052;13.610;2023-01-30T01:03:32;22.00;;;12.00;;
58752;SDS011;44525;46.052;13.610;2023-01-30T01:05:57;19.58;;;11.82;;
58752;SDS011;44525;46.052;13.610;2023-01-30T01:08:22;21.42;;;12.45;;
58752;SDS011;44525;46.052;13.610;2023-01-30T01:10:48;25.05;;;13.38;;
58752;SDS011;44525;46.052;13.610;2023-01-30T01:13:13;19.92;;;11.23;;
58752;SDS011;44525;46.052;13.610;2023-01-30T01:15:38;22.10;;;12.13;;
58752;SDS011;44525;46.052;13.610;2023-01-30T01:18:04;20.92;;;12.13;;
58752;SDS011;44525;46.052;13.610;2023-01-30T01:20:30;23.52;;;12.00;;
58752;SDS011;44525;46.052;13.610;2023-01-30T01:22:55;18.65;;;11.63;;
58752;SDS011;44525;46.052;13.610;2023-01-30T01:25:21;19.02;;;11.27;;
58752;SDS011;44525;46.052;13.610;2023-01-30T01:27:48;21.92;;;11.23;;
58752;SDS011;44525;46.052;13.610;2023-01-30T01:30:14;22.38;;;11.68;;
58752;SDS011;44525;46.052;13.610;2023-01-30T01:32:40;24.92;;;12.65;;
58752;SDS011;44525;46.052;13.610;2023-01-30T01:35:05;20.25;;;11.35;;
58752;SDS011;44525;46.052;13.610;2023-01-30T01:37:31;20.25;;;11.55;;
58752;SDS011;44525;46.052;13.610;2023-01-30T01:39:56;21.63;;;11.93;;
58752;SDS011;44525;46.052;13.610;2023-01-30T01:42:40;24.23;;;13.00;;
58752;SDS011;44525;46.052;13.610;2023-01-30T01:47:41;18.90;;;11.02;;
58752;SDS011;44525;46.052;13.610;2023-01-30T01:50:12;20.35;;;11.23;;
58752;SDS011;44525;46.052;13.610;2023-01-30T01:52:42;18.80;;;11.45;;
58752;SDS011;44525;46.052;13.610;2023-01-30T01:55:09;24.77;;;13.52;;
58752;SDS011;44525;46.052;13.610;2023-01-30T01:57:39;22.25;;;12.88;;
58752;SDS011;44525;46.052;13.610;2023-01-30T02:00:10;21.23;;;11.18;;
58752;SDS011;44525;46.052;13.610;2023-01-30T02:02:41;23.92;;;12.70;;
58752;SDS011;44525;46.052;13.610;2023-01-30T02:05:10;19.90;;;11.50;;
58752;SDS011;44525;46.052;13.610;2023-01-30T02:10:11;20.92;;;12.40;;
58752;SDS011;44525;46.052;13.610;2023-01-30T02:12:40;21.60;;;12.35;;
58752;SDS011;44525;46.052;13.610;2023-01-30T02:15:06;23.08;;;13.10;;
58752;SDS011;44525;46.052;13.610;2023-01-30T02:17:32;23.00;;;13.32;;
58752;SDS011;44525;46.052;13.610;2023-01-30T02:34:02;22.80;;;12.88;;
58752;SDS011;44525;46.052;13.610;2023-01-30T02:37:34;22.35;;;12.68;;
58752;SDS011;44525;46.052;13.610;2023-01-30T02:45:08;19.38;;;11.70;;
58752;SDS011;44525;46.052;13.610;2023-01-30T02:47:43;25.02;;;13.18;;
58752;SDS011;44525;46.052;13.610;2023-01-30T02:50:15;24.45;;;12.88;;
58752;SDS011;44525;46.052;13.610;2023-01-30T02:52:49;21.73;;;12.27;;
58752;SDS011;44525;46.052;13.610;2023-01-30T02:55:17;19.63;;;12.43;;
58752;SDS011;44525;46.052;13.610;2023-01-30T02:57:44;20.52;;;12.25;;
58752;SDS011;44525;46.052;13.610;2023-01-30T03:00:09;21.75;;;12.80;;
58752;SDS011;44525;46.052;13.610;2023-01-30T03:16:02;24.85;;;14.10;;
58752;SDS011;44525;46.052;13.610;2023-01-30T03:18:32;21.67;;;12.68;;
58752;SDS011;44525;46.052;13.610;2023-01-30T03:21:02;19.20;;;11.82;;
58752;SDS011;44525;46.052;13.610;2023-01-30T03:23:29;29.27;;;13.10;;
58752;SDS011;44525;46.052;13.610;2023-01-30T03:25:54;20.70;;;11.98;;
58752;SDS011;44525;46.052;13.610;2023-01-30T03:28:20;19.42;;;12.00;;
58752;SDS011;44525;46.052;13.610;2023-01-30T03:30:46;24.00;;;13.25;;
58752;SDS011;44525;46.052;13.610;2023-01-30T03:33:11;24.42;;;13.52;;
58752;SDS011;44525;46.052;13.610;2023-01-30T03:35:37;22.55;;;12.23;;
58752;SDS011;44525;46.052;13.610;2023-01-30T03:38:02;25.27;;;14.20;;
58752;SDS011;44525;46.052;13.610;2023-01-30T03:40:28;24.42;;;12.55;;
58752;SDS011;44525;46.052;13.610;2023-01-30T03:42:53;23.60;;;12.40;;
58752;SDS011;44525;46.052;13.610;2023-01-30T03:45:18;22.17;;;11.65;;
58752;SDS011;44525;46.052;13.610;2023-01-30T03:47:44;21.85;;;12.27;;
58752;SDS011;44525;46.052;13.610;2023-01-30T03:50:09;22.25;;;12.48;;
58752;SDS011;44525;46.052;13.610;2023-01-30T03:52:35;20.50;;;12.55;;
58752;SDS011;44525;46.052;13.610;2023-01-30T03:55:00;23.45;;;12.85;;
58752;SDS011;44525;46.052;13.610;2023-01-30T03:57:26;24.15;;;13.32;;
58752;SDS011;44525;46.052;13.610;2023-01-30T03:59:51;20.67;;;12.50;;
58752;SDS011;44525;46.052;13.610;2023-01-30T04:02:17;20.98;;;12.43;;
58752;SDS011;44525;46.052;13.610;2023-01-30T04:04:46;23.00;;;13.15;;
58752;SDS011;44525;46.052;13.610;2023-01-30T04:07:12;23.83;;;13.25;;
58752;SDS011;44525;46.052;13.610;2023-01-30T04:09:38;23.02;;;13.32;;
58752;SDS011;44525;46.052;13.610;2023-01-30T04:12:03;22.83;;;13.15;;
58752;SDS011;44525;46.052;13.610;2023-01-30T04:14:28;23.20;;;13.98;;
58752;SDS011;44525;46.052;13.610;2023-01-30T04:16:54;21.70;;;12.70;;
58752;SDS011;44525;46.052;13.610;2023-01-30T04:19:19;24.15;;;14.15;;
58752;SDS011;44525;46.052;13.610;2023-01-30T04:21:44;22.92;;;12.55;;
58752;SDS011;44525;46.052;13.610;2023-01-30T04:24:10;22.35;;;13.18;;
58752;SDS011;44525;46.052;13.610;2023-01-30T04:26:35;24.75;;;13.65;;
58752;SDS011;44525;46.052;13.610;2023-01-30T04:29:00;22.58;;;13.32;;
58752;SDS011;44525;46.052;13.610;2023-01-30T04:31:26;24.70;;;14.48;;
58752;SDS011;44525;46.052;13.610;2023-01-30T04:33:51;26.85;;;14.02;;
58752;SDS011;44525;46.052;13.610;2023-01-30T04:36:16;22.10;;;13.38;;
58752;SDS011;44525;46.052;13.610;2023-01-30T04:38:42;24.05;;;14.15;;
58752;SDS011;44525;46.052;13.610;2023-01-30T04:41:07;21.92;;;12.82;;
58752;SDS011;44525;46.052;13.610;2023-01-30T04:43:32;24.90;;;13.75;;
58752;SDS011;44525;46.052;13.610;2023-01-30T04:45:58;24.00;;;12.98;;
58752;SDS011;44525;46.052;13.610;2023-01-30T04:48:24;27.55;;;14.85;;
58752;SDS011;44525;46.052;13.610;2023-01-30T04:50:50;24.08;;;14.32;;
58752;SDS011;44525;46.052;13.610;2023-01-30T04:53:16;25.48;;;15.50;;
58752;SDS011;44525;46.052;13.610;2023-01-30T04:55:42;22.17;;;12.75;;
58752;SDS011;44525;46.052;13.610;2023-01-30T04:58:08;20.02;;;12.85;;
58752;SDS011;44525;46.052;13.610;2023-01-30T05:00:33;25.42;;;13.98;;
58752;SDS011;44525;46.052;13.610;2023-01-30T05:02:58;21.50;;;12.77;;
58752;SDS011;44525;46.052;13.610;2023-01-30T05:05:24;25.75;;;13.95;;
58752;SDS011;44525;46.052;13.610;2023-01-30T05:07:51;22.77;;;12.88;;
58752;SDS011;44525;46.052;13.610;2023-01-30T05:10:16;25.58;;;13.93;;
58752;SDS011;44525;46.052;13.610;2023-01-30T05:12:42;23.42;;;13.15;;
58752;SDS011;44525;46.052;13.610;2023-01-30T05:15:08;24.83;;;14.00;;
58752;SDS011;44525;46.052;13.610;2023-01-30T05:17:35;24.50;;;13.60;;
58752;SDS011;44525;46.052;13.610;2023-01-30T05:20:01;27.98;;;16.48;;
58752;SDS011;44525;46.052;13.610;2023-01-30T05:22:26;25.45;;;13.80;;
58752;SDS011;44525;46.052;13.610;2023-01-30T05:24:51;25.58;;;15.73;;
58752;SDS011;44525;46.052;13.610;2023-01-30T05:27:17;23.30;;;14.77;;
58752;SDS011;44525;46.052;13.610;2023-01-30T05:29:42;26.15;;;13.93;;
58752;SDS011;44525;46.052;13.610;2023-01-30T05:32:11;25.95;;;14.13;;
58752;SDS011;44525;46.052;13.610;2023-01-30T05:34:38;23.40;;;13.30;;
58752;SDS011;44525;46.052;13.610;2023-01-30T05:37:03;31.42;;;17.65;;
58752;SDS011;44525;46.052;13.610;2023-01-30T05:39:29;123.75;;;54.22;;
58752;SDS011;44525;46.052;13.610;2023-01-30T05:41:54;36.92;;;19.52;;
58752;SDS011;44525;46.052;13.610;2023-01-30T05:44:19;31.45;;;17.33;;
58752;SDS011;44525;46.052;13.610;2023-01-30T05:46:45;26.92;;;15.57;;
58752;SDS011;44525;46.052;13.610;2023-01-30T05:49:10;29.52;;;15.82;;
58752;SDS011;44525;46.052;13.610;2023-01-30T05:51:35;28.40;;;15.13;;
58752;SDS011;44525;46.052;13.610;2023-01-30T05:54:01;29.27;;;15.65;;
58752;SDS011;44525;46.052;13.610;2023-01-30T05:56:26;23.60;;;14.75;;
58752;SDS011;44525;46.052;13.610;2023-01-30T05:58:52;28.27;;;14.65;;
58752;SDS011;44525;46.052;13.610;2023-01-30T06:01:19;25.80;;;14.90;;
58752;SDS011;44525;46.052;13.610;2023-01-30T06:03:45;31.30;;;18.80;;
58752;SDS011;44525;46.052;13.610;2023-01-30T06:06:10;40.33;;;20.27;;
58752;SDS011;44525;46.052;13.610;2023-01-30T06:08:36;36.53;;;18.42;;
58752;SDS011;44525;46.052;13.610;2023-01-30T06:11:03;30.15;;;16.05;;
58752;SDS011;44525;46.052;13.610;2023-01-30T06:13:30;22.38;;;12.95;;
58752;SDS011;44525;46.052;13.610;2023-01-30T06:15:55;26.88;;;12.75;;
58752;SDS011;44525;46.052;13.610;2023-01-30T06:18:21;20.33;;;12.70;;
58752;SDS011;44525;46.052;13.610;2023-01-30T06:20:47;27.67;;;14.05;;
58752;SDS011;44525;46.052;13.610;2023-01-30T06:23:13;23.45;;;12.82;;
58752;SDS011;44525;46.052;13.610;2023-01-30T06:25:41;26.45;;;13.77;;
58752;SDS011;44525;46.052;13.610;2023-01-30T06:28:08;29.35;;;14.90;;
58752;SDS011;44525;46.052;13.610;2023-01-30T06:30:34;27.65;;;14.65;;
58752;SDS011;44525;46.052;13.610;2023-01-30T06:32:59;66.75;;;44.28;;
58752;SDS011;44525;46.052;13.610;2023-01-30T06:35:24;41.80;;;25.92;;
58752;SDS011;44525;46.052;13.610;2023-01-30T06:37:50;32.90;;;19.70;;
58752;SDS011;44525;46.052;13.610;2023-01-30T06:40:15;30.75;;;15.80;;
58752;SDS011;44525;46.052;13.610;2023-01-30T06:42:44;40.65;;;22.83;;
58752;SDS011;44525;46.052;13.610;2023-01-30T06:45:10;40.03;;;23.48;;
58752;SDS011;44525;46.052;13.610;2023-01-30T06:47:46;39.53;;;20.67;;
58752;SDS011;44525;46.052;13.610;2023-01-30T06:50:16;36.17;;;20.70;;
58752;SDS011;44525;46.052;13.610;2023-01-30T06:52:44;32.95;;;18.73;;
58752;SDS011;44525;46.052;13.610;2023-01-30T06:55:11;33.53;;;19.70;;
58752;SDS011;44525;46.052;13.610;2023-01-30T06:57:38;35.40;;;17.73;;
58752;SDS011;44525;46.052;13.610;2023-01-30T07:00:04;33.20;;;17.38;;
58752;SDS011;44525;46.052;13.610;2023-01-30T07:02:30;34.25;;;20.35;;
58752;SDS011;44525;46.052;13.610;2023-01-30T07:04:59;34.28;;;19.77;;
58752;SDS011;44525;46.052;13.610;2023-01-30T07:07:28;37.47;;;20.02;;
58752;SDS011;44525;46.052;13.610;2023-01-30T07:09:55;32.58;;;19.30;;
58752;SDS011;44525;46.052;13.610;2023-01-30T07:12:20;30.88;;;17.13;;
58752;SDS011;44525;46.052;13.610;2023-01-30T07:14:46;34.17;;;18.75;;
58752;SDS011;44525;46.052;13.610;2023-01-30T07:17:11;35.17;;;19.08;;
58752;SDS011;44525;46.052;13.610;2023-01-30T07:19:36;32.15;;;19.88;;
58752;SDS011;44525;46.052;13.610;2023-01-30T07:22:03;30.65;;;17.58;;
58752;SDS011;44525;46.052;13.610;2023-01-30T07:24:28;33.55;;;19.48;;
58752;SDS011;44525;46.052;13.610;2023-01-30T07:26:53;30.65;;;17.83;;
58752;SDS011;44525;46.052;13.610;2023-01-30T07:29:19;34.88;;;19.48;;
58752;SDS011;44525;46.052;13.610;2023-01-30T07:31:44;33.30;;;18.75;;
58752;SDS011;44525;46.052;13.610;2023-01-30T07:34:09;35.60;;;19.48;;
58752;SDS011;44525;46.052;13.610;2023-01-30T07:36:35;35.95;;;19.17;;
58752;SDS011;44525;46.052;13.610;2023-01-30T07:39:01;28.85;;;17.35;;
58752;SDS011;44525;46.052;13.610;2023-01-30T07:41:27;27.55;;;17.58;;
58752;SDS011;44525;46.052;13.610;2023-01-30T07:43:53;31.30;;;17.00;;
58752;SDS011;44525;46.052;13.610;2023-01-30T07:46:18;30.42;;;15.73;;
58752;SDS011;44525;46.052;13.610;2023-01-30T07:48:44;27.42;;;15.25;;
58752;SDS011;44525;46.052;13.610;2023-01-30T07:51:09;29.38;;;16.63;;
58752;SDS011;44525;46.052;13.610;2023-01-30T07:53:35;30.67;;;17.00;;
58752;SDS011;44525;46.052;13.610;2023-01-30T07:56:07;33.88;;;16.48;;
58752;SDS011;44525;46.052;13.610;2023-01-30T07:58:33;29.27;;;14.90;;
58752;SDS011;44525;46.052;13.610;2023-01-30T08:00:58;38.38;;;14.77;;
58752;SDS011;44525;46.052;13.610;2023-01-30T08:03:24;29.52;;;16.98;;
58752;SDS011;44525;46.052;13.610;2023-01-30T08:05:49;25.85;;;13.63;;
58752;SDS011;44525;46.052;13.610;2023-01-30T08:08:15;23.42;;;12.45;;
58752;SDS011;44525;46.052;13.610;2023-01-30T08:10:40;22.98;;;13.02;;
58752;SDS011;44525;46.052;13.610;2023-01-30T08:13:06;24.00;;;14.02;;
58752;SDS011;44525;46.052;13.610;2023-01-30T08:15:31;23.23;;;13.55;;
58752;SDS011;44525;46.052;13.610;2023-01-30T08:17:57;28.50;;;13.43;;
58752;SDS011;44525;46.052;13.610;2023-01-30T08:20:24;30.55;;;15.77;;
58752;SDS011;44525;46.052;13.610;2023-01-30T08:22:51;25.85;;;14.35;;
58752;SDS011;44525;46.052;13.610;2023-01-30T08:25:17;24.05;;;12.98;;
58752;SDS011;44525;46.052;13.610;2023-01-30T08:27:42;24.63;;;12.48;;
58752;SDS011;44525;46.052;13.610;2023-01-30T08:30:08;26.30;;;12.98;;
58752;SDS011;44525;46.052;13.610;2023-01-30T08:32:34;23.27;;;12.48;;
58752;SDS011;44525;46.052;13.610;2023-01-30T08:35:00;20.95;;;11.85;;
58752;SDS011;44525;46.052;13.610;2023-01-30T08:37:25;23.02;;;12.40;;
58752;SDS011;44525;46.052;13.610;2023-01-30T08:39:50;24.90;;;12.35;;
58752;SDS011;44525;46.052;13.610;2023-01-30T08:42:16;26.23;;;13.23;;
58752;SDS011;44525;46.052;13.610;2023-01-30T08:44:41;29.63;;;14.40;;
58752;SDS011;44525;46.052;13.610;2023-01-30T08:47:06;113.53;;;50.85;;
58752;SDS011;44525;46.052;13.610;2023-01-30T08:49:32;42.33;;;21.02;;
58752;SDS011;44525;46.052;13.610;2023-01-30T08:51:57;66.18;;;30.60;;
58752;SDS011;44525;46.052;13.610;2023-01-30T08:54:22;48.65;;;23.38;;
58752;SDS011;44525;46.052;13.610;2023-01-30T08:56:48;32.15;;;15.82;;
58752;SDS011;44525;46.052;13.610;2023-01-30T08:59:13;28.15;;;14.32;;
58752;SDS011;44525;46.052;13.610;2023-01-30T09:01:38;27.58;;;14.30;;
58752;SDS011;44525;46.052;13.610;2023-01-30T09:04:04;32.58;;;15.68;;
58752;SDS011;44525;46.052;13.610;2023-01-30T09:06:29;29.83;;;14.80;;
58752;SDS011;44525;46.052;13.610;2023-01-30T09:08:55;26.55;;;14.52;;
58752;SDS011;44525;46.052;13.610;2023-01-30T09:11:20;41.40;;;21.27;;
58752;SDS011;44525;46.052;13.610;2023-01-30T09:13:45;36.63;;;19.63;;
58752;SDS011;44525;46.052;13.610;2023-01-30T09:16:11;39.83;;;18.33;;
58752;SDS011;44525;46.052;13.610;2023-01-30T09:18:37;47.28;;;20.20;;
58752;SDS011;44525;46.052;13.610;2023-01-30T09:21:04;27.27;;;14.10;;
58752;SDS011;44525;46.052;13.610;2023-01-30T09:23:30;31.30;;;14.45;;
58752;SDS011;44525;46.052;13.610;2023-01-30T09:25:55;31.63;;;15.32;;
58752;SDS011;44525;46.052;13.610;2023-01-30T09:28:21;30.35;;;14.32;;
58752;SDS011;44525;46.052;13.610;2023-01-30T09:30:46;35.60;;;15.43;;
58752;SDS011;44525;46.052;13.610;2023-01-30T09:33:11;35.10;;;13.63;;
58752;SDS011;44525;46.052;13.610;2023-01-30T09:35:40;28.67;;;13.02;;
58752;SDS011;44525;46.052;13.610;2023-01-30T09:38:05;23.63;;;12.18;;
58752;SDS011;44525;46.052;13.610;2023-01-30T09:40:31;24.67;;;12.32;;
58752;SDS011;44525;46.052;13.610;2023-01-30T09:48:54;19.55;;;11.45;;
58752;SDS011;44525;46.052;13.610;2023-01-30T09:56:28;19.52;;;10.60;;
58752;SDS011;44525;46.052;13.610;2023-01-30T09:58:56;21.05;;;11.52;;
58752;SDS011;44525;46.052;13.610;2023-01-30T10:09:54;22.50;;;11.73;;
58752;SDS011;44525;46.052;13.610;2023-01-30T10:12:36;21.35;;;11.07;;
58752;SDS011;44525;46.052;13.610;2023-01-30T10:26:23;20.30;;;10.40;;
58752;SDS011;44525;46.052;13.610;2023-01-30T10:31:18;19.10;;;10.63;;
58752;SDS011;44525;46.052;13.610;2023-01-30T10:36:23;18.60;;;9.73;;
58752;SDS011;44525;46.052;13.610;2023-01-30T10:38:57;19.33;;;10.38;;
58752;SDS011;44525;46.052;13.610;2023-01-30T10:41:39;28.50;;;14.85;;
58752;SDS011;44525;46.052;13.610;2023-01-30T10:44:13;23.73;;;11.73;;
58752;SDS011;44525;46.052;13.610;2023-01-30T10:58:05;48.83;;;28.30;;
58752;SDS011;44525;46.052;13.610;2023-01-30T11:00:42;20.58;;;10.20;;
58752;SDS011;44525;46.052;13.610;2023-01-30T11:03:40;16.42;;;10.02;;
58752;SDS011;44525;46.052;13.610;2023-01-30T11:06:16;19.42;;;10.10;;
58752;SDS011;44525;46.052;13.610;2023-01-30T11:08:44;21.77;;;12.32;;
58752;SDS011;44525;46.052;13.610;2023-01-30T11:11:21;20.85;;;12.55;;
58752;SDS011;44525;46.052;13.610;2023-01-30T11:13:50;18.65;;;10.23;;
58752;SDS011;44525;46.052;13.610;2023-01-30T11:16:25;20.55;;;11.88;;
58752;SDS011;44525;46.052;13.610;2023-01-30T11:18:51;18.17;;;10.18;;
58752;SDS011;44525;46.052;13.610;2023-01-30T11:23:49;23.42;;;11.77;;
58752;SDS011;44525;46.052;13.610;2023-01-30T11:26:18;21.50;;;11.57;;
58752;SDS011;44525;46.052;13.610;2023-01-30T11:28:47;23.85;;;14.30;;
58752;SDS011;44525;46.052;13.610;2023-01-30T11:31:30;24.35;;;13.82;;
58752;SDS011;44525;46.052;13.610;2023-01-30T11:34:00;23.77;;;15.48;;
58752;SDS011;44525;46.052;13.610;2023-01-30T11:36:30;18.63;;;10.98;;
58752;SDS011;44525;46.052;13.610;2023-01-30T11:41:27;21.23;;;11.85;;
58752;SDS011;44525;46.052;13.610;2023-01-30T11:44:00;26.83;;;15.63;;
58752;SDS011;44525;46.052;13.610;2023-01-30T11:46:28;32.80;;;18.35;;
58752;SDS011;44525;46.052;13.610;2023-01-30T11:48:58;15.27;;;9.98;;
58752;SDS011;44525;46.052;13.610;2023-01-30T11:51:27;26.75;;;15.02;;
58752;SDS011;44525;46.052;13.610;2023-01-30T11:53:55;20.83;;;13.30;;
58752;SDS011;44525;46.052;13.610;2023-01-30T11:56:26;21.67;;;12.77;;
58752;SDS011;44525;46.052;13.610;2023-01-30T11:58:55;21.23;;;11.98;;
58752;SDS011;44525;46.052;13.610;2023-01-30T12:01:29;27.40;;;15.75;;
58752;SDS011;44525;46.052;13.610;2023-01-30T12:06:23;26.20;;;12.82;;
58752;SDS011;44525;46.052;13.610;2023-01-30T12:08:53;26.73;;;16.05;;
58752;SDS011;44525;46.052;13.610;2023-01-30T12:11:24;37.50;;;20.95;;
58752;SDS011;44525;46.052;13.610;2023-01-30T12:13:52;22.60;;;13.77;;
58752;SDS011;44525;46.052;13.610;2023-01-30T12:16:25;27.23;;;15.55;;
58752;SDS011;44525;46.052;13.610;2023-01-30T12:21:58;30.73;;;17.13;;
58752;SDS011;44525;46.052;13.610;2023-01-30T12:24:35;24.63;;;13.50;;
58752;SDS011;44525;46.052;13.610;2023-01-30T12:27:18;23.10;;;12.88;;
58752;SDS011;44525;46.052;13.610;2023-01-30T12:29:52;25.85;;;14.68;;
58752;SDS011;44525;46.052;13.610;2023-01-30T12:32:38;27.85;;;15.98;;
58752;SDS011;44525;46.052;13.610;2023-01-30T12:35:12;25.30;;;14.57;;
58752;SDS011;44525;46.052;13.610;2023-01-30T12:38:26;31.30;;;18.52;;
58752;SDS011;44525;46.052;13.610;2023-01-30T12:40:41;24.90;;;13.52;;
58752;SDS011;44525;46.052;13.610;2023-01-30T12:48:40;27.23;;;14.27;;
58752;SDS011;44525;46.052;13.610;2023-01-30T13:02:25;29.98;;;16.00;;
58752;SDS011;44525;46.052;13.610;2023-01-30T13:10:42;26.77;;;16.85;;
58752;SDS011;44525;46.052;13.610;2023-01-30T13:18:31;28.08;;;14.85;;
58752;SDS011;44525;46.052;13.610;2023-01-30T13:26:39;26.25;;;14.80;;
58752;SDS011;44525;46.052;13.610;2023-01-30T13:29:39;29.05;;;16.50;;
58752;SDS011;44525;46.052;13.610;2023-01-30T13:32:03;29.48;;;16.13;;
58752;SDS011;44525;46.052;13.610;2023-01-30T13:34:37;28.05;;;16.92;;
58752;SDS011;44525;46.052;13.610;2023-01-30T13:37:15;32.88;;;18.88;;
58752;SDS011;44525;46.052;13.610;2023-01-30T13:39:58;30.75;;;18.65;;
58752;SDS011;44525;46.052;13.610;2023-01-30T13:45:19;25.80;;;15.03;;
58752;SDS011;44525;46.052;13.610;2023-01-30T13:53:36;25.05;;;14.43;;
58752;SDS011;44525;46.052;13.610;2023-01-30T13:58:56;29.05;;;16.35;;
58752;SDS011;44525;46.052;13.610;2023-01-30T14:09:35;36.88;;;21.27;;
58752;SDS011;44525;46.052;13.610;2023-01-30T14:12:01;32.92;;;17.60;;
58752;SDS011;44525;46.052;13.610;2023-01-30T14:14:32;72.82;;;34.05;;
58752;SDS011;44525;46.052;13.610;2023-01-30T14:22:41;50.33;;;27.40;;
58752;SDS011;44525;46.052;13.610;2023-01-30T14:28:36;44.08;;;25.00;;
58752;SDS011;44525;46.052;13.610;2023-01-30T14:35:46;35.08;;;18.80;;
58752;SDS011;44525;46.052;13.610;2023-01-30T14:38:27;29.58;;;18.48;;
58752;SDS011;44525;46.052;13.610;2023-01-30T14:53:55;37.13;;;21.52;;
58752;SDS011;44525;46.052;13.610;2023-01-30T15:04:22;31.20;;;18.30;;
58752;SDS011;44525;46.052;13.610;2023-01-30T15:06:50;34.70;;;19.20;;
58752;SDS011;44525;46.052;13.610;2023-01-30T15:09:19;36.20;;;21.02;;
58752;SDS011;44525;46.052;13.610;2023-01-30T15:11:52;55.47;;;30.13;;
58752;SDS011;44525;46.052;13.610;2023-01-30T15:14:37;107.15;;;51.97;;
58752;SDS011;44525;46.052;13.610;2023-01-30T15:17:16;42.58;;;22.77;;
58752;SDS011;44525;46.052;13.610;2023-01-30T15:20:05;58.13;;;30.38;;
58752;SDS011;44525;46.052;13.610;2023-01-30T15:25:11;49.08;;;27.45;;
58752;SDS011;44525;46.052;13.610;2023-01-30T15:27:47;50.97;;;26.27;;
58752;SDS011;44525;46.052;13.610;2023-01-30T15:33:36;45.40;;;25.88;;
58752;SDS011;44525;46.052;13.610;2023-01-30T15:35:55;48.70;;;25.88;;
58752;SDS011;44525;46.052;13.610;2023-01-30T15:41:00;45.08;;;25.55;;
58752;SDS011;44525;46.052;13.610;2023-01-30T15:46:16;50.92;;;26.55;;
58752;SDS011;44525;46.052;13.610;2023-01-30T15:51:29;58.83;;;32.25;;
58752;SDS011;44525;46.052;13.610;2023-01-30T15:53:57;44.42;;;25.08;;
58752;SDS011;44525;46.052;13.610;2023-01-30T15:56:27;53.75;;;27.92;;
58752;SDS011;44525;46.052;13.610;2023-01-30T15:58:55;55.08;;;32.00;;
58752;SDS011;44525;46.052;13.610;2023-01-30T16:01:23;82.80;;;28.73;;
58752;SDS011;44525;46.052;13.610;2023-01-30T16:03:49;100.15;;;54.90;;
58752;SDS011;44525;46.052;13.610;2023-01-30T16:09:00;39.65;;;21.83;;
58752;SDS011;44525;46.052;13.610;2023-01-30T16:11:35;43.60;;;22.60;;
58752;SDS011;44525;46.052;13.610;2023-01-30T16:14:01;42.50;;;22.80;;
58752;SDS011;44525;46.052;13.610;2023-01-30T16:16:26;43.20;;;24.30;;
58752;SDS011;44525;46.052;13.610;2023-01-30T16:21:23;51.70;;;26.33;;
58752;SDS011;44525;46.052;13.610;2023-01-30T16:23:59;59.58;;;30.77;;
58752;SDS011;44525;46.052;13.610;2023-01-30T16:26:30;51.92;;;27.63;;
58752;SDS011;44525;46.052;13.610;2023-01-30T16:29:02;46.33;;;25.90;;
58752;SDS011;44525;46.052;13.610;2023-01-30T16:31:32;53.63;;;27.35;;
58752;SDS011;44525;46.052;13.610;2023-01-30T16:33:59;62.70;;;32.90;;
58752;SDS011;44525;46.052;13.610;2023-01-30T16:38:50;58.95;;;32.00;;
58752;SDS011;44525;46.052;13.610;2023-01-30T16:41:26;83.20;;;37.50;;
58752;SDS011;44525;46.052;13.610;2023-01-30T16:46:51;62.92;;;32.30;;
58752;SDS011;44525;46.052;13.610;2023-01-30T16:54:35;52.67;;;27.80;;
58752;SDS011;44525;46.052;13.610;2023-01-30T16:57:00;51.17;;;27.83;;
58752;SDS011;44525;46.052;13.610;2023-01-30T16:59:31;54.55;;;28.77;;
58752;SDS011;44525;46.052;13.610;2023-01-30T17:01:58;57.67;;;31.30;;
58752;SDS011;44525;46.052;13.610;2023-01-30T17:04:30;65.88;;;34.38;;
58752;SDS011;44525;46.052;13.610;2023-01-30T17:06:59;63.42;;;34.20;;
58752;SDS011;44525;46.052;13.610;2023-01-30T17:15:37;76.47;;;42.80;;
58752;SDS011;44525;46.052;13.610;2023-01-30T17:17:43;82.95;;;45.35;;
58752;SDS011;44525;46.052;13.610;2023-01-30T17:20:10;71.93;;;39.63;;
58752;SDS011;44525;46.052;13.610;2023-01-30T17:22:37;79.30;;;41.33;;
58752;SDS011;44525;46.052;13.610;2023-01-30T17:25:05;70.20;;;36.67;;
58752;SDS011;44525;46.052;13.610;2023-01-30T17:27:49;62.88;;;32.95;;
58752;SDS011;44525;46.052;13.610;2023-01-30T17:30:16;77.90;;;43.15;;
58752;SDS011;44525;46.052;13.610;2023-01-30T17:32:42;74.65;;;40.92;;
58752;SDS011;44525;46.052;13.610;2023-01-30T17:35:07;74.97;;;43.75;;
58752;SDS011;44525;46.052;13.610;2023-01-30T17:37:35;85.00;;;46.50;;
58752;SDS011;44525;46.052;13.610;2023-01-30T17:40:00;86.50;;;47.20;;
58752;SDS011;44525;46.052;13.610;2023-01-30T17:42:25;90.88;;;47.42;;
58752;SDS011;44525;46.052;13.610;2023-01-30T17:44:51;72.43;;;39.35;;
58752;SDS011;44525;46.052;13.610;2023-01-30T17:47:16;59.45;;;31.42;;
58752;SDS011;44525;46.052;13.610;2023-01-30T17:49:42;51.75;;;29.98;;
58752;SDS011;44525;46.052;13.610;2023-01-30T17:52:07;61.95;;;34.00;;
58752;SDS011;44525;46.052;13.610;2023-01-30T17:54:33;70.95;;;39.78;;